createdAt,value
2022-12-18T00:01:33.989Z,69.29
2022-12-18T00:06:36.470Z,69.04
2022-12-18T00:11:37.826Z,68.65
2022-12-18T00:16:40.090Z,69.04
2022-12-18T00:21:42.813Z,68.98
2022-12-18T00:26:44.205Z,69.30
2022-12-18T00:31:46.836Z,69.29
2022-12-18T00:36:49.213Z,68.81
2022-12-18T00:42:08.938Z,68.97
2022-12-18T00:47:10.286Z,69.18
2022-12-18T00:52:11.715Z,69.08
2022-12-18T00:57:13.077Z,69.13
2022-12-18T01:02:14.561Z,68.84
2022-12-18T01:07:15.978Z,69.21
2022-12-18T01:12:17.371Z,69.43
2022-12-18T01:17:18.754Z,69.40
2022-12-18T01:22:20.130Z,69.15
2022-12-18T01:27:21.533Z,69.51
2022-12-18T01:32:23.360Z,69.44
2022-12-18T01:37:24.806Z,70.07
2022-12-18T01:42:26.546Z,69.56
2022-12-18T01:47:45.740Z,69.48
2022-12-18T01:52:50.864Z,69.28
2022-12-18T01:57:57.289Z,69.50
2022-12-18T02:02:58.746Z,69.45
2022-12-18T02:08:05.884Z,69.64
2022-12-18T02:13:21.890Z,69.31
2022-12-18T02:18:33.424Z,69.24
2022-12-18T02:23:53.432Z,69.62
2022-12-18T02:29:00.563Z,69.62
2022-12-18T02:34:06.500Z,69.65
2022-12-18T02:39:11.576Z,69.40
2022-12-18T02:44:15.140Z,69.43
2022-12-18T02:49:28.858Z,69.02
2022-12-18T02:55:18.100Z,69.32
2022-12-18T03:00:25.944Z,69.36
2022-12-18T03:05:39.524Z,69.51
2022-12-18T03:10:46.465Z,69.02
2022-12-18T03:15:52.476Z,69.38
2022-12-18T03:20:56.621Z,69.10
2022-12-18T03:26:07.320Z,69.30
2022-12-18T03:31:12.895Z,69.01
2022-12-18T03:36:15.251Z,68.65
2022-12-18T03:41:24.395Z,68.82
2022-12-18T03:46:43.081Z,69.47
2022-12-18T03:51:54.189Z,69.17
2022-12-18T03:57:05.727Z,68.57
2022-12-18T04:02:08.993Z,69.19
2022-12-18T04:07:11.345Z,68.99
2022-12-18T04:12:12.704Z,68.59
2022-12-18T04:17:14.714Z,68.78
2022-12-18T04:22:16.419Z,69.13
2022-12-18T04:27:17.816Z,68.96
2022-12-18T04:32:19.244Z,68.97
2022-12-18T04:37:20.608Z,68.50
2022-12-18T04:42:22.111Z,68.81
2022-12-18T04:47:23.445Z,68.51
2022-12-18T04:52:25.012Z,68.42
2022-12-18T04:57:27.002Z,68.36
2022-12-18T05:02:28.462Z,68.52
2022-12-18T05:07:29.900Z,68.45
2022-12-18T05:12:32.481Z,68.79
2022-12-18T05:17:33.895Z,68.62
2022-12-18T05:22:35.256Z,68.28
2022-12-18T05:27:36.599Z,68.44
2022-12-18T05:32:38.428Z,68.51
2022-12-18T05:37:43.171Z,68.65
2022-12-18T05:42:44.941Z,68.27
2022-12-18T05:47:46.299Z,68.42
2022-12-18T05:52:47.644Z,68.06
2022-12-18T05:57:48.998Z,68.00
2022-12-18T06:02:50.455Z,68.06
2022-12-18T06:07:51.934Z,68.10
2022-12-18T06:12:53.731Z,68.18
2022-12-18T06:17:55.178Z,68.33
2022-12-18T06:22:56.566Z,68.34
2022-12-18T06:27:57.898Z,68.69
2022-12-18T06:32:59.365Z,68.50
2022-12-18T06:38:02.387Z,68.46
2022-12-18T06:43:03.716Z,68.05
2022-12-18T06:48:05.179Z,67.94
2022-12-18T06:53:06.532Z,67.91
2022-12-18T06:58:08.838Z,68.08
2022-12-18T07:03:12.672Z,67.87
2022-12-18T07:08:14.098Z,67.63
2022-12-18T07:13:18.812Z,67.92
2022-12-18T07:18:20.257Z,67.76
2022-12-18T07:23:21.607Z,67.68
2022-12-18T07:28:22.994Z,67.61
2022-12-18T07:33:26.154Z,67.31
2022-12-18T07:38:28.228Z,67.38
2022-12-18T07:43:29.814Z,67.47
2022-12-18T07:48:31.731Z,67.72
2022-12-18T07:53:34.908Z,67.59
2022-12-18T07:58:37.155Z,67.47
2022-12-18T08:03:40.360Z,67.76
2022-12-18T08:08:43.102Z,67.59
2022-12-18T08:13:44.467Z,67.61
2022-12-18T08:18:46.262Z,67.24
2022-12-18T08:23:48.722Z,67.01
2022-12-18T08:28:51.306Z,67.14
2022-12-18T08:33:53.947Z,67.45
2022-12-18T08:38:57.548Z,66.76
2022-12-18T08:44:17.849Z,66.96
2022-12-18T08:49:19.301Z,67.24
2022-12-18T08:54:20.674Z,67.32
2022-12-18T08:59:22.072Z,67.16
2022-12-18T09:04:23.743Z,67.48
2022-12-18T09:09:25.282Z,67.37
2022-12-18T09:14:26.620Z,67.17
2022-12-18T09:19:28.112Z,67.03
2022-12-18T09:24:29.501Z,66.84
2022-12-18T09:29:31.049Z,67.20
2022-12-18T09:34:32.399Z,67.42
2022-12-18T09:39:36.806Z,67.41
2022-12-18T09:44:47.347Z,67.19
2022-12-18T09:49:56.010Z,67.07
2022-12-18T09:55:10.483Z,66.83
2022-12-18T10:00:19.982Z,66.94
2022-12-18T10:05:41.044Z,67.54
2022-12-18T10:11:02.375Z,67.10
2022-12-18T10:16:16.406Z,67.19
2022-12-18T10:21:24.775Z,67.68
2022-12-18T10:26:26.318Z,67.42
2022-12-18T10:31:27.764Z,67.80
2022-12-18T10:36:30.033Z,67.99
2022-12-18T10:41:33.215Z,67.41
2022-12-18T10:46:34.605Z,67.38
2022-12-18T10:51:38.406Z,67.77
2022-12-18T10:56:40.442Z,67.77
2022-12-18T11:01:48.445Z,68.03
2022-12-18T11:06:59.023Z,68.02
2022-12-18T11:12:03.778Z,68.08
2022-12-18T11:22:32.899Z,67.90
2022-12-18T11:27:34.386Z,68.09
2022-12-18T11:32:41.708Z,67.94
2022-12-18T11:37:48.820Z,67.87
2022-12-18T11:42:59.096Z,67.71
2022-12-18T11:48:19.607Z,68.05
2022-12-18T11:53:21.496Z,67.74
2022-12-18T11:58:35.765Z,67.65
2022-12-18T12:04:14.854Z,67.39
2022-12-18T12:09:47.784Z,67.39
2022-12-18T12:15:18.055Z,67.37
2022-12-18T12:20:44.252Z,66.93
2022-12-18T12:25:48.969Z,66.53
2022-12-18T12:31:16.249Z,66.91
2022-12-18T12:36:31.744Z,66.98
2022-12-18T12:41:55.102Z,66.73
2022-12-18T12:47:01.528Z,66.65
2022-12-18T12:52:12.826Z,66.45
2022-12-18T12:57:21.349Z,65.94
2022-12-18T13:02:25.114Z,66.28
2022-12-18T13:07:33.569Z,66.44
2022-12-18T13:12:53.679Z,66.72
2022-12-18T13:18:28.891Z,65.94
2022-12-18T13:23:32.062Z,66.11
2022-12-18T13:28:33.737Z,66.05
2022-12-18T13:33:35.397Z,66.06
2022-12-18T13:38:40.770Z,65.89
2022-12-18T13:43:50.600Z,65.81
2022-12-18T13:48:56.617Z,66.08
2022-12-18T13:54:06.942Z,65.80
2022-12-18T13:59:41.091Z,65.69
2022-12-18T14:04:46.419Z,65.24
2022-12-18T14:09:55.616Z,65.11
2022-12-18T14:15:04.841Z,65.91
2022-12-18T14:20:15.633Z,65.30
2022-12-18T14:25:23.078Z,65.21
2022-12-18T14:30:24.540Z,65.62
2022-12-18T14:35:25.954Z,65.47
2022-12-18T14:40:27.439Z,65.51
2022-12-18T14:45:45.271Z,65.43
2022-12-18T14:51:15.314Z,65.09
2022-12-18T14:56:28.123Z,65.38
2022-12-18T15:01:38.177Z,65.10
2022-12-18T15:06:40.998Z,65.03
2022-12-18T15:11:42.303Z,65.31
2022-12-18T15:16:46.238Z,64.94
2022-12-18T15:21:47.759Z,65.48
2022-12-18T15:26:49.883Z,64.92
2022-12-18T15:32:06.362Z,65.21
2022-12-18T15:37:08.857Z,65.01
2022-12-18T15:42:29.786Z,65.59
2022-12-18T15:47:31.154Z,65.77
2022-12-18T15:52:44.946Z,65.99
2022-12-18T15:57:46.349Z,66.20
2022-12-18T16:02:47.905Z,66.30
2022-12-18T16:07:49.597Z,66.64
2022-12-18T16:12:51.302Z,66.74
2022-12-18T16:17:53.149Z,66.86
2022-12-18T16:22:54.505Z,66.88
2022-12-18T16:27:57.256Z,67.00
2022-12-18T16:32:59.281Z,66.94
2022-12-18T16:38:00.662Z,66.26
2022-12-18T16:43:02.073Z,66.51
2022-12-18T16:48:03.991Z,66.99
2022-12-18T16:53:05.349Z,66.36
2022-12-18T16:58:06.719Z,66.33
2022-12-18T17:03:08.315Z,66.37
2022-12-18T17:08:09.922Z,66.52
2022-12-18T17:13:11.353Z,66.68
2022-12-18T17:18:12.860Z,66.47
2022-12-18T17:23:14.242Z,66.68
2022-12-18T17:28:15.674Z,66.67
2022-12-18T17:33:17.105Z,66.37
2022-12-18T17:38:18.524Z,66.23
2022-12-18T17:43:20.083Z,66.57
2022-12-18T17:48:21.935Z,66.41
2022-12-18T17:53:23.596Z,66.67
2022-12-18T17:58:25.046Z,66.45
2022-12-18T18:03:26.711Z,66.45
2022-12-18T18:08:29.001Z,66.67
2022-12-18T18:13:49.522Z,66.63
2022-12-18T18:18:51.248Z,66.75
2022-12-18T18:23:52.662Z,66.71
2022-12-18T18:28:55.111Z,66.77
2022-12-18T18:33:57.642Z,66.56
2022-12-18T18:39:03.098Z,66.67
2022-12-18T18:44:05.014Z,66.46
2022-12-18T18:49:06.871Z,66.39
2022-12-18T18:54:09.642Z,66.61
2022-12-18T18:59:11.045Z,67.24
2022-12-18T19:04:12.545Z,66.69
2022-12-18T19:09:13.958Z,67.13
2022-12-18T19:14:16.078Z,67.13
2022-12-18T19:19:20.954Z,67.18
2022-12-18T19:24:22.814Z,66.92
2022-12-18T19:29:24.223Z,67.07
2022-12-18T19:34:25.794Z,66.77
2022-12-18T19:39:27.321Z,67.10
2022-12-18T19:44:28.736Z,67.32
2022-12-18T19:49:31.995Z,67.37
2022-12-18T19:54:33.641Z,67.19
2022-12-18T19:59:36.877Z,67.53
2022-12-18T20:04:40.473Z,67.50
2022-12-18T20:09:41.827Z,67.45
2022-12-18T20:14:43.707Z,66.89
2022-12-18T20:19:45.438Z,67.39
2022-12-18T20:24:46.838Z,67.61
2022-12-18T20:29:50.971Z,67.25
2022-12-18T20:34:52.327Z,67.28
2022-12-18T20:39:55.024Z,67.33
2022-12-18T20:44:56.845Z,66.95
2022-12-18T20:49:58.407Z,66.91
2022-12-18T20:54:59.854Z,66.81
2022-12-18T21:00:02.512Z,66.66
2022-12-18T21:05:04.430Z,67.11
2022-12-18T21:10:06.410Z,66.67
2022-12-18T21:15:09.510Z,67.46
2022-12-18T21:20:11.091Z,66.56
2022-12-18T21:25:18.623Z,66.75
2022-12-18T21:30:20.103Z,66.64
2022-12-18T21:35:21.492Z,66.85
2022-12-18T21:40:24.951Z,66.46
2022-12-18T21:45:26.311Z,66.75
2022-12-18T21:50:27.707Z,66.73
2022-12-18T21:55:29.061Z,66.35
2022-12-18T22:00:30.393Z,66.05
2022-12-18T22:05:31.764Z,66.02
2022-12-18T22:10:33.185Z,66.93
2022-12-18T22:15:34.747Z,67.24
2022-12-18T22:20:36.167Z,66.84
2022-12-18T22:25:39.681Z,66.80
2022-12-18T22:30:41.514Z,66.25
2022-12-18T22:35:43.007Z,66.60
2022-12-18T22:40:44.790Z,66.25
2022-12-18T22:45:47.283Z,66.47
2022-12-18T22:50:49.558Z,66.10
2022-12-18T22:55:52.289Z,66.43
2022-12-18T23:00:54.218Z,65.91
2022-12-18T23:06:03.075Z,66.07
2022-12-18T23:11:05.325Z,66.72
2022-12-18T23:16:09.015Z,66.15
2022-12-18T23:21:13.919Z,65.79
2022-12-18T23:26:21.914Z,65.61
2022-12-18T23:31:24.739Z,66.39
2022-12-18T23:36:26.406Z,66.38
2022-12-18T23:41:31.329Z,66.08
2022-12-18T23:46:35.973Z,66.38
2022-12-18T23:51:37.738Z,66.49
2022-12-18T23:56:40.894Z,66.24
